createdAt,value
2023-03-02T00:00:53.967Z,1.63
2023-03-02T00:01:53.976Z,1.67
2023-03-02T00:02:53.979Z,1.71
2023-03-02T00:03:54.048Z,1.61
2023-03-02T00:04:53.932Z,1.65
2023-03-02T00:05:53.921Z,1.70
2023-03-02T00:06:53.923Z,1.67
2023-03-02T00:07:53.901Z,1.71
2023-03-02T00:08:53.884Z,1.71
2023-03-02T00:09:53.882Z,1.63
2023-03-02T00:10:53.873Z,1.70
2023-03-02T00:11:53.873Z,1.65
2023-03-02T00:12:53.854Z,1.67
2023-03-02T00:13:53.850Z,1.63
2023-03-02T00:14:53.838Z,1.65
2023-03-02T00:15:53.864Z,1.49
2023-03-02T00:16:53.830Z,1.61
2023-03-02T00:17:53.813Z,1.54
2023-03-02T00:18:53.798Z,1.53
2023-03-02T00:19:53.793Z,1.53
2023-03-02T00:20:53.781Z,1.53
2023-03-02T00:21:53.781Z,1.52
2023-03-02T00:22:53.763Z,1.47
2023-03-02T00:23:53.756Z,1.44
2023-03-02T00:24:53.743Z,1.38
2023-03-02T00:25:53.734Z,1.49
2023-03-02T00:26:53.735Z,1.39
2023-03-02T00:27:53.723Z,1.38
2023-03-02T00:28:53.709Z,1.42
2023-03-02T00:29:53.697Z,1.39
2023-03-02T00:30:53.685Z,1.47
2023-03-02T00:31:53.848Z,1.35
2023-03-02T00:32:53.672Z,1.29
2023-03-02T00:33:53.662Z,1.32
2023-03-02T00:34:53.657Z,1.36
2023-03-02T00:35:53.732Z,1.36
2023-03-02T00:36:53.635Z,1.32
2023-03-02T00:37:53.624Z,1.35
2023-03-02T00:38:53.621Z,1.42
2023-03-02T00:39:53.612Z,1.39
2023-03-02T00:40:53.596Z,1.42
2023-03-02T00:41:53.599Z,1.31
2023-03-02T00:42:53.577Z,1.25
2023-03-02T00:43:53.567Z,1.24
2023-03-02T00:44:53.563Z,1.28
2023-03-02T00:45:53.551Z,1.25
2023-03-02T00:46:53.616Z,1.21
2023-03-02T00:47:53.535Z,1.25
2023-03-02T00:48:53.522Z,1.26
2023-03-02T00:49:53.515Z,1.25
2023-03-02T00:50:53.508Z,1.29
2023-03-02T00:51:53.613Z,1.18
2023-03-02T00:52:53.489Z,1.17
2023-03-02T00:53:53.481Z,1.16
2023-03-02T00:54:53.473Z,1.14
2023-03-02T00:55:53.466Z,1.24
2023-03-02T00:56:53.507Z,1.29
2023-03-02T00:57:53.444Z,1.20
2023-03-02T00:58:53.439Z,1.24
2023-03-02T00:59:53.438Z,1.28
2023-03-02T01:00:53.423Z,1.20
2023-03-02T01:01:53.450Z,1.08
2023-03-02T01:02:53.496Z,1.11
2023-03-02T01:03:53.412Z,0.99
2023-03-02T01:04:53.394Z,1.04
2023-03-02T01:05:53.388Z,0.93
2023-03-02T01:06:53.397Z,0.99
2023-03-02T01:07:53.385Z,1.04
2023-03-02T01:08:53.361Z,1.02
2023-03-02T01:09:53.351Z,1.07
2023-03-02T01:10:54.306Z,1.08
2023-03-02T01:11:54.347Z,1.17
2023-03-02T01:12:53.329Z,1.17
2023-03-02T01:13:53.325Z,1.08
2023-03-02T01:14:53.308Z,1.28
2023-03-02T01:15:53.331Z,1.04
2023-03-02T01:16:53.306Z,1.20
2023-03-02T01:17:53.281Z,1.16
2023-03-02T01:18:53.275Z,1.18
2023-03-02T01:19:53.264Z,1.11
2023-03-02T01:20:53.257Z,0.96
2023-03-02T01:21:53.256Z,1.11
2023-03-02T01:22:53.243Z,1.17
2023-03-02T01:23:53.225Z,1.10
2023-03-02T01:24:53.218Z,1.11
2023-03-02T01:25:53.211Z,1.14
2023-03-02T01:26:53.219Z,1.20
2023-03-02T01:27:53.205Z,1.25
2023-03-02T01:28:53.183Z,1.26
2023-03-02T01:29:53.176Z,1.24
2023-03-02T01:30:53.168Z,1.18
2023-03-02T01:31:53.303Z,1.26
2023-03-02T01:32:53.146Z,1.28
2023-03-02T01:33:53.156Z,1.29
2023-03-02T01:34:53.122Z,1.26
2023-03-02T01:35:53.184Z,1.20
2023-03-02T01:36:53.116Z,1.25
2023-03-02T01:37:53.101Z,1.25
2023-03-02T01:38:53.119Z,1.20
2023-03-02T01:39:53.086Z,1.18
2023-03-02T01:40:53.065Z,1.24
2023-03-02T01:41:53.068Z,1.16
2023-03-02T01:42:53.050Z,1.13
2023-03-02T01:43:53.037Z,1.16
2023-03-02T01:44:53.065Z,1.21
2023-03-02T01:45:53.226Z,1.16
2023-03-02T01:46:53.024Z,1.28
2023-03-02T01:47:53.005Z,1.18
2023-03-02T01:48:53.008Z,1.20
2023-03-02T01:49:52.998Z,1.18
2023-03-02T01:50:52.977Z,1.20
2023-03-02T01:51:52.999Z,1.25
2023-03-02T01:52:52.963Z,1.26
2023-03-02T01:53:54.621Z,1.31
2023-03-02T01:54:52.943Z,1.25
2023-03-02T01:55:52.942Z,1.26
2023-03-02T01:56:52.952Z,1.28
2023-03-02T01:57:52.930Z,1.20
2023-03-02T01:58:52.911Z,1.26
2023-03-02T01:59:52.902Z,1.20
2023-03-02T02:00:52.901Z,1.24
2023-03-02T02:01:52.893Z,1.20
2023-03-02T02:02:52.869Z,1.31
2023-03-02T02:03:52.886Z,1.26
2023-03-02T02:04:52.854Z,1.29
2023-03-02T02:05:52.846Z,1.35
2023-03-02T02:06:52.876Z,1.28
2023-03-02T02:07:52.826Z,1.28
2023-03-02T02:08:52.826Z,1.21
2023-03-02T02:09:52.813Z,1.21
2023-03-02T02:10:52.793Z,1.21
2023-03-02T02:11:52.786Z,1.28
2023-03-02T02:12:52.805Z,1.28
2023-03-02T02:13:52.789Z,1.14
2023-03-02T02:14:52.767Z,1.06
2023-03-02T02:15:52.749Z,1.16
2023-03-02T02:16:52.789Z,1.04
2023-03-02T02:17:52.733Z,1.11
2023-03-02T02:18:53.725Z,1.10
2023-03-02T02:19:52.722Z,1.11
2023-03-02T02:20:52.697Z,1.02
2023-03-02T02:21:52.691Z,0.98
2023-03-02T02:22:52.696Z,0.99
2023-03-02T02:23:52.678Z,0.92
2023-03-02T02:24:52.660Z,0.96
2023-03-02T02:25:52.654Z,0.95
2023-03-02T02:26:52.645Z,0.95
2023-03-02T02:27:52.649Z,0.95
2023-03-02T02:28:52.664Z,0.86
2023-03-02T02:29:52.677Z,0.86
2023-03-02T02:30:52.610Z,0.89
2023-03-02T02:31:52.715Z,0.88
2023-03-02T02:32:52.651Z,0.88
2023-03-02T02:33:52.582Z,0.82
2023-03-02T02:34:52.584Z,0.80
2023-03-02T02:35:52.610Z,0.84
2023-03-02T02:36:52.555Z,0.88
2023-03-02T02:37:52.591Z,0.81
2023-03-02T02:38:52.537Z,0.82
2023-03-02T02:39:52.555Z,0.80
2023-03-02T02:40:52.540Z,0.81
2023-03-02T02:41:52.541Z,0.88
2023-03-02T02:42:52.531Z,0.80
2023-03-02T02:43:52.497Z,0.82
2023-03-02T02:44:52.486Z,0.72
2023-03-02T02:45:52.669Z,0.75
2023-03-02T02:46:52.472Z,0.78
2023-03-02T02:47:52.480Z,0.80
2023-03-02T02:48:52.445Z,0.84
2023-03-02T02:49:52.433Z,0.71
2023-03-02T02:50:53.428Z,0.71
2023-03-02T02:51:52.421Z,0.72
2023-03-02T02:52:52.425Z,0.77
2023-03-02T02:53:52.406Z,0.77
2023-03-02T02:54:52.397Z,0.78
2023-03-02T02:55:52.391Z,0.75
2023-03-02T02:56:52.376Z,0.75
2023-03-02T02:57:52.378Z,0.78
2023-03-02T02:58:52.359Z,0.71
2023-03-02T02:59:52.346Z,0.77
2023-03-02T03:00:52.402Z,0.81
2023-03-02T03:01:52.414Z,0.89
2023-03-02T03:02:52.337Z,0.71
2023-03-02T03:03:52.380Z,0.82
2023-03-02T03:04:52.309Z,0.90
2023-03-02T03:05:52.296Z,0.81
2023-03-02T03:06:52.294Z,0.77
2023-03-02T03:07:52.317Z,0.81
2023-03-02T03:08:52.268Z,0.86
2023-03-02T03:09:52.275Z,0.82
2023-03-02T03:10:52.248Z,0.78
2023-03-02T03:11:52.251Z,0.81
2023-03-02T03:12:52.246Z,0.81
2023-03-02T03:13:52.230Z,0.77
2023-03-02T03:14:52.217Z,0.90
2023-03-02T03:15:52.204Z,0.86
2023-03-02T03:16:52.265Z,0.90
2023-03-02T03:17:52.217Z,0.82
2023-03-02T03:18:52.179Z,0.98
2023-03-02T03:19:52.165Z,0.86
2023-03-02T03:20:52.163Z,0.90
2023-03-02T03:21:52.152Z,0.96
2023-03-02T03:22:52.147Z,0.92
2023-03-02T03:23:52.129Z,0.90
2023-03-02T03:24:52.135Z,0.96
2023-03-02T03:25:52.111Z,1.00
2023-03-02T03:26:52.104Z,0.93
2023-03-02T03:27:52.119Z,0.95
2023-03-02T03:28:52.083Z,0.93
2023-03-02T03:29:52.072Z,0.95
2023-03-02T03:30:52.103Z,0.92
2023-03-02T03:31:52.132Z,0.95
2023-03-02T03:32:52.057Z,0.96
2023-03-02T03:33:52.037Z,0.99
2023-03-02T03:34:52.038Z,0.95
2023-03-02T03:35:52.075Z,0.95
2023-03-02T03:36:52.025Z,0.98
2023-03-02T03:37:52.012Z,0.98
2023-03-02T03:38:51.997Z,0.95
2023-03-02T03:39:51.985Z,0.93
2023-03-02T03:40:51.971Z,0.96
2023-03-02T03:41:51.960Z,1.02
2023-03-02T03:42:51.968Z,1.06
2023-03-02T03:43:51.980Z,1.10
2023-03-02T03:44:52.946Z,1.00
2023-03-02T03:45:52.017Z,1.04
2023-03-02T03:46:51.932Z,1.04
2023-03-02T03:47:51.916Z,0.96
2023-03-02T03:48:51.906Z,0.99
2023-03-02T03:49:51.888Z,0.98
2023-03-02T03:50:51.881Z,0.96
2023-03-02T03:51:51.873Z,0.98
2023-03-02T03:52:51.877Z,0.99
2023-03-02T03:53:51.855Z,0.96
2023-03-02T03:54:51.847Z,0.98
2023-03-02T03:55:51.837Z,0.93
2023-03-02T03:56:51.826Z,1.02
2023-03-02T03:57:51.834Z,0.95
2023-03-02T03:58:51.827Z,0.90
2023-03-02T03:59:51.801Z,0.86
2023-03-02T04:00:51.791Z,0.86
2023-03-02T04:01:51.807Z,0.95
2023-03-02T04:02:51.820Z,0.95
2023-03-02T04:03:51.758Z,0.89
2023-03-02T04:04:51.758Z,0.92
2023-03-02T04:05:51.751Z,0.95
2023-03-02T04:06:51.732Z,0.96
2023-03-02T04:07:51.725Z,1.04
2023-03-02T04:08:51.712Z,0.98
2023-03-02T04:09:51.702Z,1.02
2023-03-02T04:10:51.694Z,0.96
2023-03-02T04:11:51.684Z,0.93
2023-03-02T04:12:51.686Z,0.89
2023-03-02T04:13:51.673Z,0.96
2023-03-02T04:14:51.665Z,0.88
2023-03-02T04:15:51.691Z,0.80
2023-03-02T04:16:51.647Z,0.84
2023-03-02T04:17:51.639Z,0.84
2023-03-02T04:18:51.619Z,0.80
2023-03-02T04:19:51.604Z,0.84
2023-03-02T04:20:51.603Z,0.80
2023-03-02T04:21:51.597Z,0.78
2023-03-02T04:22:51.606Z,0.80
2023-03-02T04:23:51.575Z,0.77
2023-03-02T04:24:51.568Z,0.86
2023-03-02T04:25:51.555Z,0.70
2023-03-02T04:26:51.573Z,0.78
2023-03-02T04:27:51.557Z,0.80
2023-03-02T04:28:51.532Z,0.80
2023-03-02T04:29:51.531Z,0.82
2023-03-02T04:30:51.608Z,0.81
2023-03-02T04:31:51.596Z,0.81
2023-03-02T04:32:51.515Z,0.81
2023-03-02T04:33:51.500Z,0.89
2023-03-02T04:34:51.492Z,0.77
2023-03-02T04:35:51.504Z,0.81
2023-03-02T04:36:51.472Z,0.78
2023-03-02T04:37:51.489Z,0.75
2023-03-02T04:38:51.461Z,0.84
2023-03-02T04:39:51.460Z,0.80
2023-03-02T04:40:51.438Z,0.89
2023-03-02T04:41:51.429Z,0.90
2023-03-02T04:42:51.436Z,0.92
2023-03-02T04:43:51.414Z,0.84
2023-03-02T04:44:51.405Z,0.82
2023-03-02T04:45:51.401Z,0.75
2023-03-02T04:46:51.524Z,0.80
2023-03-02T04:47:51.391Z,0.82
2023-03-02T04:48:51.370Z,0.84
2023-03-02T04:49:51.366Z,0.89
2023-03-02T04:50:51.354Z,0.90
2023-03-02T04:51:51.349Z,0.90
2023-03-02T04:52:51.348Z,0.82
2023-03-02T04:53:51.328Z,0.89
2023-03-02T04:54:51.359Z,0.96
2023-03-02T04:55:51.320Z,0.98
2023-03-02T04:56:51.302Z,0.96
2023-03-02T04:57:51.317Z,0.98
2023-03-02T04:58:51.286Z,0.93
2023-03-02T04:59:51.287Z,0.96
2023-03-02T05:00:51.280Z,0.95
2023-03-02T05:01:51.317Z,0.96
2023-03-02T05:02:52.269Z,1.02
2023-03-02T05:03:51.254Z,0.96
2023-03-02T05:04:51.257Z,0.99
2023-03-02T05:05:51.221Z,0.90
2023-03-02T05:06:51.239Z,0.95
2023-03-02T05:07:51.223Z,0.89
2023-03-02T05:08:51.194Z,0.92
2023-03-02T05:09:51.187Z,0.88
2023-03-02T05:10:51.178Z,0.88
2023-03-02T05:11:51.167Z,0.81
2023-03-02T05:12:51.171Z,0.84
2023-03-02T05:13:51.159Z,0.86
2023-03-02T05:14:51.139Z,0.81
2023-03-02T05:15:51.190Z,0.90
2023-03-02T05:16:51.123Z,0.90
2023-03-02T05:17:51.128Z,0.88
2023-03-02T05:19:23.017Z,0.92
2023-03-02T05:19:51.101Z,0.86
2023-03-02T05:20:51.095Z,0.82
2023-03-02T05:21:51.086Z,0.78
2023-03-02T05:22:51.117Z,0.80
2023-03-02T05:23:51.068Z,0.81
2023-03-02T05:24:51.059Z,0.78
2023-03-02T05:25:51.051Z,0.82
2023-03-02T05:26:51.046Z,0.86
2023-03-02T05:27:51.051Z,0.84
2023-03-02T05:28:53.017Z,0.89
2023-03-02T05:29:52.020Z,0.80
2023-03-02T05:30:51.021Z,0.92
2023-03-02T05:31:51.169Z,0.81
2023-03-02T05:32:50.993Z,0.89
2023-03-02T05:33:51.002Z,0.90
2023-03-02T05:34:50.971Z,0.90
2023-03-02T05:35:51.022Z,0.92
2023-03-02T05:36:50.954Z,0.89
2023-03-02T05:37:50.943Z,0.81
2023-03-02T05:38:50.947Z,0.80
2023-03-02T05:39:50.935Z,0.90
2023-03-02T05:40:50.922Z,0.93
2023-03-02T05:41:51.003Z,0.92
2023-03-02T05:42:50.906Z,0.88
2023-03-02T05:43:50.903Z,0.81
2023-03-02T05:44:50.891Z,0.82
2023-03-02T05:45:50.883Z,0.93
2023-03-02T05:46:50.904Z,0.90
2023-03-02T05:47:50.863Z,0.95
2023-03-02T05:48:50.865Z,0.92
2023-03-02T05:49:50.839Z,0.96
2023-03-02T05:50:50.837Z,0.96
2023-03-02T05:51:50.830Z,0.99
2023-03-02T05:52:50.858Z,0.93
2023-03-02T05:53:50.834Z,1.00
2023-03-02T05:54:50.795Z,1.04
2023-03-02T05:55:50.817Z,0.99
2023-03-02T05:56:50.779Z,0.93
2023-03-02T05:57:50.772Z,0.90
2023-03-02T05:58:50.781Z,0.93
2023-03-02T05:59:50.753Z,0.98
2023-03-02T06:00:50.756Z,0.93
2023-03-02T06:01:50.819Z,0.90
2023-03-02T06:02:50.773Z,0.88
2023-03-02T06:03:50.722Z,0.90
2023-03-02T06:04:50.702Z,0.92
2023-03-02T06:05:50.718Z,0.95
2023-03-02T06:06:50.689Z,0.93
2023-03-02T06:07:50.678Z,0.95
2023-03-02T06:08:50.680Z,0.93
2023-03-02T06:09:50.682Z,0.92
2023-03-02T06:10:50.675Z,0.98
2023-03-02T06:11:50.650Z,0.84
2023-03-02T06:12:50.625Z,0.99
2023-03-02T06:13:50.630Z,0.90
2023-03-02T06:14:50.607Z,0.98
2023-03-02T06:15:50.599Z,0.98
2023-03-02T06:16:50.625Z,1.04
2023-03-02T06:17:50.586Z,1.00
2023-03-02T06:18:50.601Z,1.14
2023-03-02T06:19:50.575Z,1.13
2023-03-02T06:20:50.573Z,1.11
2023-03-02T06:21:50.551Z,1.16
2023-03-02T06:22:50.541Z,1.00
2023-03-02T06:23:50.547Z,1.16
2023-03-02T06:24:50.519Z,1.14
2023-03-02T06:25:50.518Z,1.11
2023-03-02T06:26:50.502Z,1.07
2023-03-02T06:27:50.496Z,1.06
2023-03-02T06:28:53.146Z,1.11
2023-03-02T06:29:51.507Z,1.20
2023-03-02T06:30:50.476Z,1.24
2023-03-02T06:31:50.599Z,1.24
2023-03-02T06:32:50.510Z,1.20
2023-03-02T06:33:51.467Z,1.31
2023-03-02T06:34:50.437Z,1.26
2023-03-02T06:35:50.601Z,1.24
2023-03-02T06:36:50.417Z,1.20
2023-03-02T06:37:50.409Z,1.24
2023-03-02T06:38:50.440Z,1.25
2023-03-02T06:39:50.389Z,1.34
2023-03-02T06:40:50.387Z,1.26
2023-03-02T06:41:50.375Z,1.29
2023-03-02T06:42:50.362Z,1.38
2023-03-02T06:43:50.387Z,1.42
2023-03-02T06:44:50.342Z,1.42
2023-03-02T06:45:50.349Z,1.43
2023-03-02T06:46:50.328Z,1.44
2023-03-02T06:47:50.319Z,1.47
2023-03-02T06:48:50.319Z,1.49
2023-03-02T06:49:50.302Z,1.54
2023-03-02T06:50:50.300Z,1.53
2023-03-02T06:51:50.303Z,1.60
2023-03-02T06:52:50.281Z,1.44
2023-03-02T06:53:50.279Z,1.50
2023-03-02T06:54:50.255Z,1.54
2023-03-02T06:55:50.255Z,1.63
2023-03-02T06:56:50.241Z,1.67
2023-03-02T06:57:50.247Z,1.64
2023-03-02T06:58:50.245Z,1.65
2023-03-02T06:59:50.228Z,1.72
2023-03-02T07:00:50.273Z,1.67
2023-03-02T07:01:50.199Z,1.60
2023-03-02T07:02:50.189Z,1.67
2023-03-02T07:03:50.312Z,1.64
2023-03-02T07:04:50.176Z,1.74
2023-03-02T07:05:50.170Z,1.86
2023-03-02T07:06:50.153Z,2.04
2023-03-02T07:07:50.145Z,2.11
2023-03-02T07:08:50.144Z,2.04
2023-03-02T07:09:50.124Z,2.05
2023-03-02T07:10:50.124Z,2.19
2023-03-02T07:11:50.107Z,2.09
2023-03-02T07:12:50.093Z,2.04
2023-03-02T07:13:50.104Z,2.01
2023-03-02T07:14:50.075Z,2.05
2023-03-02T07:15:50.102Z,1.83
2023-03-02T07:16:50.121Z,2.01
2023-03-02T07:17:50.048Z,2.01
2023-03-02T07:18:50.061Z,2.11
2023-03-02T07:19:50.050Z,2.09
2023-03-02T07:20:50.029Z,2.11
2023-03-02T07:21:50.013Z,2.11
2023-03-02T07:22:50.009Z,2.09
2023-03-02T07:23:50.016Z,2.20
2023-03-02T07:24:50.001Z,2.18
2023-03-02T07:25:49.993Z,2.22
2023-03-02T07:26:49.980Z,2.11
2023-03-02T07:27:49.979Z,2.26
2023-03-02T07:28:50.010Z,2.40
2023-03-02T07:29:49.950Z,2.36
2023-03-02T07:30:49.998Z,2.74
2023-03-02T07:31:49.941Z,2.83
2023-03-02T07:32:49.925Z,2.74
2023-03-02T07:33:49.940Z,2.66
2023-03-02T07:34:49.912Z,2.50
2023-03-02T07:35:49.926Z,2.45
2023-03-02T07:36:49.892Z,2.47
2023-03-02T07:37:49.912Z,2.36
2023-03-02T07:38:49.876Z,2.29
2023-03-02T07:39:49.873Z,2.37
2023-03-02T07:40:49.853Z,2.26
2023-03-02T07:41:49.848Z,2.29
2023-03-02T07:42:49.833Z,2.38
2023-03-02T07:43:49.837Z,2.40
2023-03-02T07:44:49.814Z,2.43
2023-03-02T07:45:49.810Z,2.53
2023-03-02T07:46:49.871Z,2.43
2023-03-02T07:47:49.806Z,2.51
2023-03-02T07:48:49.799Z,2.40
2023-03-02T07:49:49.787Z,2.44
2023-03-02T07:50:49.774Z,2.43
2023-03-02T07:51:49.753Z,2.58
2023-03-02T07:52:49.752Z,2.50
2023-03-02T07:53:49.755Z,2.59
2023-03-02T07:54:49.735Z,2.56
2023-03-02T07:55:49.731Z,2.68
2023-03-02T07:56:49.711Z,2.66
2023-03-02T07:57:49.726Z,2.63
2023-03-02T07:58:49.706Z,2.68
2023-03-02T07:59:49.687Z,2.66
2023-03-02T08:00:49.685Z,2.59
2023-03-02T08:01:49.733Z,2.71
2023-03-02T08:02:49.726Z,2.71
2023-03-02T08:03:49.678Z,2.62
2023-03-02T08:04:49.645Z,2.48
2023-03-02T08:05:49.696Z,2.63
2023-03-02T08:06:49.641Z,2.66
2023-03-02T08:07:49.654Z,2.71
2023-03-02T08:08:49.624Z,2.79
2023-03-02T08:09:49.607Z,2.89
2023-03-02T08:10:49.612Z,2.94
2023-03-02T08:11:49.581Z,2.89
2023-03-02T08:12:49.572Z,2.81
2023-03-02T08:13:49.571Z,2.83
2023-03-02T08:14:49.563Z,2.89
2023-03-02T08:15:49.574Z,2.95
2023-03-02T08:16:49.537Z,3.01
2023-03-02T08:17:49.534Z,3.08
2023-03-02T08:18:49.540Z,3.10
2023-03-02T08:19:49.514Z,3.20
2023-03-02T08:20:49.496Z,3.34
2023-03-02T08:21:49.505Z,3.60
2023-03-02T08:22:49.492Z,3.68
2023-03-02T08:23:49.541Z,4.08
2023-03-02T08:24:49.469Z,4.08
2023-03-02T08:25:49.463Z,3.99
2023-03-02T08:26:49.449Z,4.29
2023-03-02T08:27:49.446Z,4.62
2023-03-02T08:28:49.471Z,5.08
2023-03-02T08:29:49.417Z,5.47
2023-03-02T08:30:50.420Z,5.44
2023-03-02T08:31:49.460Z,5.70
2023-03-02T08:32:49.460Z,5.63
2023-03-02T08:33:49.413Z,5.56
2023-03-02T08:34:49.380Z,5.30
2023-03-02T08:35:51.339Z,5.45
2023-03-02T08:36:49.362Z,5.35
2023-03-02T08:37:49.357Z,4.97
2023-03-02T08:38:49.370Z,4.71
2023-03-02T08:39:49.339Z,4.61
2023-03-02T08:40:49.331Z,4.54
2023-03-02T08:41:49.315Z,4.38
2023-03-02T08:42:49.307Z,4.20
2023-03-02T08:43:49.307Z,3.99
2023-03-02T08:44:50.297Z,3.93
2023-03-02T08:45:49.324Z,4.21
2023-03-02T08:46:49.272Z,4.49
2023-03-02T08:47:49.261Z,4.65
2023-03-02T08:48:49.276Z,4.84
2023-03-02T08:49:49.256Z,4.77
2023-03-02T08:50:49.238Z,4.94
2023-03-02T08:51:49.244Z,4.97
2023-03-02T08:52:49.221Z,5.11
2023-03-02T08:53:49.230Z,4.68
2023-03-02T08:54:49.230Z,4.64
2023-03-02T08:55:49.197Z,4.84
2023-03-02T08:56:49.182Z,5.05
2023-03-02T08:57:49.190Z,5.51
2023-03-02T08:58:49.197Z,5.96
2023-03-02T08:59:49.161Z,6.20
2023-03-02T09:00:49.215Z,6.27
2023-03-02T09:01:49.237Z,6.64
2023-03-02T09:02:49.128Z,6.43
2023-03-02T09:03:49.147Z,5.45
2023-03-02T09:04:49.188Z,5.01
2023-03-02T09:05:49.100Z,4.84
2023-03-02T09:06:49.090Z,4.35
2023-03-02T09:07:49.085Z,4.34
2023-03-02T09:08:49.114Z,4.28
2023-03-02T09:09:49.130Z,4.26
2023-03-02T09:10:49.059Z,4.16
2023-03-02T09:11:49.056Z,4.14
2023-03-02T09:12:49.050Z,4.10
2023-03-02T09:13:49.029Z,4.14
2023-03-02T09:14:49.039Z,4.24
2023-03-02T09:15:49.018Z,4.38
2023-03-02T09:16:49.077Z,4.26
2023-03-02T09:17:48.993Z,4.35
2023-03-02T09:18:48.982Z,4.26
2023-03-02T09:19:49.006Z,4.16
2023-03-02T09:20:48.971Z,4.17
2023-03-02T09:21:48.951Z,4.34
2023-03-02T09:22:49.956Z,4.49
2023-03-02T09:23:48.947Z,4.68
2023-03-02T09:24:48.948Z,4.72
2023-03-02T09:25:48.953Z,5.06
2023-03-02T09:26:48.920Z,5.09
2023-03-02T09:27:48.943Z,5.32
2023-03-02T09:28:48.904Z,5.41
2023-03-02T09:29:48.907Z,5.24
2023-03-02T09:30:48.886Z,5.12
2023-03-02T09:31:48.973Z,5.09
2023-03-02T09:32:48.978Z,5.27
2023-03-02T09:33:48.914Z,5.44
2023-03-02T09:34:48.857Z,5.19
2023-03-02T09:35:48.850Z,5.27
2023-03-02T09:36:48.832Z,5.60
2023-03-02T09:37:48.854Z,5.99
2023-03-02T09:38:48.819Z,6.30
2023-03-02T09:39:48.847Z,6.28
2023-03-02T09:40:48.793Z,6.35
2023-03-02T09:41:48.790Z,6.14
2023-03-02T09:42:48.774Z,5.93
2023-03-02T09:43:48.769Z,5.49
2023-03-02T09:44:48.765Z,5.40
2023-03-02T09:45:48.781Z,5.45
2023-03-02T09:46:48.739Z,5.41
2023-03-02T09:47:48.720Z,5.47
2023-03-02T09:48:49.718Z,5.77
2023-03-02T09:49:48.718Z,5.93
2023-03-02T09:50:48.704Z,6.14
2023-03-02T09:51:48.718Z,5.85
2023-03-02T09:52:48.685Z,6.05
2023-03-02T09:53:48.676Z,6.27
2023-03-02T09:54:48.668Z,6.30
2023-03-02T09:55:49.656Z,6.32
2023-03-02T09:56:48.663Z,6.38
2023-03-02T09:57:48.662Z,6.13
2023-03-02T09:58:48.627Z,6.06
2023-03-02T09:59:48.652Z,6.06
2023-03-02T10:00:48.618Z,5.93
2023-03-02T10:01:48.600Z,5.62
2023-03-02T10:02:48.689Z,5.59
2023-03-02T10:03:48.755Z,5.52
2023-03-02T10:04:48.631Z,5.42
2023-03-02T10:05:48.598Z,5.48
2023-03-02T10:06:48.551Z,5.59
2023-03-02T10:07:48.554Z,5.58
2023-03-02T10:08:48.539Z,5.62
2023-03-02T10:09:48.545Z,5.65
2023-03-02T10:10:48.528Z,5.78
2023-03-02T10:11:48.515Z,5.93
2023-03-02T10:12:48.500Z,6.16
2023-03-02T10:13:48.490Z,6.21
2023-03-02T10:14:48.497Z,6.17
2023-03-02T10:15:48.583Z,6.13
2023-03-02T10:16:48.497Z,5.98
2023-03-02T10:17:48.498Z,5.93
2023-03-02T10:18:48.522Z,5.95
2023-03-02T10:19:48.453Z,6.06
2023-03-02T10:20:48.430Z,6.03
2023-03-02T10:21:48.420Z,6.02
2023-03-02T10:22:48.419Z,6.27
2023-03-02T10:23:48.406Z,6.40
2023-03-02T10:24:48.407Z,6.35
2023-03-02T10:25:48.392Z,6.57
2023-03-02T10:26:48.415Z,6.57
2023-03-02T10:27:48.445Z,6.45
2023-03-02T10:28:48.375Z,6.01
2023-03-02T10:29:48.361Z,6.16
2023-03-02T10:30:48.407Z,6.25
2023-03-02T10:31:48.340Z,6.27
2023-03-02T10:32:48.333Z,6.32
2023-03-02T10:33:48.320Z,6.42
2023-03-02T10:34:48.358Z,6.24
2023-03-02T10:35:48.393Z,6.36
2023-03-02T10:36:48.314Z,6.38
2023-03-02T10:37:48.347Z,6.33
2023-03-02T10:38:48.283Z,6.19
2023-03-02T10:39:48.319Z,6.35
2023-03-02T10:40:48.255Z,6.50
2023-03-02T10:41:48.293Z,6.45
2023-03-02T10:42:48.246Z,6.48
2023-03-02T10:43:48.247Z,6.46
2023-03-02T10:44:48.444Z,5.99
2023-03-02T10:45:48.286Z,5.98
2023-03-02T10:46:48.288Z,5.93
2023-03-02T10:47:48.283Z,6.24
2023-03-02T10:48:49.659Z,6.35
2023-03-02T10:49:49.189Z,6.43
2023-03-02T10:50:48.170Z,6.28
2023-03-02T10:51:48.171Z,6.13
2023-03-02T10:52:59.227Z,6.27
2023-03-02T10:53:50.146Z,6.39
2023-03-02T10:54:48.152Z,6.51
2023-03-02T10:55:48.129Z,6.65
2023-03-02T10:56:48.131Z,6.78
2023-03-02T10:57:48.110Z,6.83
2023-03-02T10:58:48.100Z,6.97
2023-03-02T10:59:48.107Z,6.93
2023-03-02T11:00:48.086Z,7.01
2023-03-02T11:01:48.155Z,6.90
2023-03-02T11:02:48.069Z,6.90
2023-03-02T11:03:48.063Z,6.94
2023-03-02T11:04:48.119Z,7.05
2023-03-02T11:05:48.042Z,6.97
2023-03-02T11:06:48.034Z,6.91
2023-03-02T11:07:48.020Z,6.94
2023-03-02T11:08:48.017Z,6.78
2023-03-02T11:09:48.020Z,6.61
2023-03-02T11:10:47.996Z,6.46
2023-03-02T11:11:48.045Z,6.38
2023-03-02T11:12:47.982Z,6.42
2023-03-02T11:13:47.970Z,6.40
2023-03-02T11:14:47.961Z,6.58
2023-03-02T11:15:48.026Z,6.63
2023-03-02T11:16:47.944Z,6.65
2023-03-02T11:17:47.938Z,6.68
2023-03-02T11:18:47.925Z,6.96
2023-03-02T11:19:47.939Z,6.82
2023-03-02T11:20:47.904Z,6.81
2023-03-02T11:21:47.898Z,6.97
2023-03-02T11:22:47.883Z,7.00
2023-03-02T11:23:47.875Z,6.91
2023-03-02T11:24:47.872Z,7.12
2023-03-02T11:25:47.921Z,7.23
2023-03-02T11:26:47.850Z,7.21
2023-03-02T11:27:47.840Z,7.18
2023-03-02T11:28:47.875Z,7.21
2023-03-02T11:29:47.827Z,7.27
2023-03-02T11:30:47.822Z,7.21
2023-03-02T11:31:47.864Z,7.30
2023-03-02T11:32:47.872Z,7.30
2023-03-02T11:33:47.890Z,7.19
2023-03-02T11:34:47.779Z,7.18
2023-03-02T11:35:47.838Z,7.12
2023-03-02T11:36:47.755Z,7.00
2023-03-02T11:37:47.745Z,7.00
2023-03-02T11:38:47.746Z,7.16
2023-03-02T11:39:54.968Z,7.15
2023-03-02T11:40:49.735Z,7.32
2023-03-02T11:41:47.727Z,7.18
2023-03-02T11:42:47.708Z,7.12
2023-03-02T11:43:47.691Z,7.21
2023-03-02T11:44:47.690Z,7.18
2023-03-02T11:45:47.688Z,7.36
2023-03-02T11:46:47.699Z,7.37
2023-03-02T11:47:54.187Z,7.42
2023-03-02T11:48:49.657Z,7.42
2023-03-02T11:49:47.661Z,7.62
2023-03-02T11:50:47.637Z,7.62
2023-03-02T11:51:57.842Z,7.44
2023-03-02T11:52:49.608Z,7.47
2023-03-02T11:53:47.718Z,7.58
2023-03-02T11:54:47.607Z,7.77
2023-03-02T11:55:47.600Z,7.69
2023-03-02T11:56:47.573Z,7.76
2023-03-02T11:57:47.562Z,7.84
2023-03-02T11:58:47.558Z,7.81
2023-03-02T11:59:47.545Z,7.77
2023-03-02T12:00:47.556Z,7.71
2023-03-02T12:01:47.559Z,7.55
2023-03-02T12:02:47.523Z,7.66
2023-03-02T12:03:47.619Z,7.73
2023-03-02T12:04:47.512Z,7.67
2023-03-02T12:05:47.591Z,7.54
2023-03-02T12:06:47.502Z,7.50
2023-03-02T12:07:47.472Z,7.52
2023-03-02T12:08:47.561Z,7.55
2023-03-02T12:09:47.455Z,7.67
2023-03-02T12:10:47.460Z,7.73
2023-03-02T12:11:47.440Z,7.74
2023-03-02T12:12:47.434Z,7.84
2023-03-02T12:13:47.424Z,7.89
2023-03-02T12:14:47.493Z,7.84
2023-03-02T12:15:47.416Z,7.84
2023-03-02T12:16:47.428Z,7.82
2023-03-02T12:17:47.397Z,7.79
2023-03-02T12:18:47.377Z,7.69
2023-03-02T12:19:47.369Z,7.76
2023-03-02T12:20:47.369Z,7.57
2023-03-02T12:21:47.350Z,7.77
2023-03-02T12:22:47.335Z,7.81
2023-03-02T12:23:47.330Z,7.94
2023-03-02T12:24:47.316Z,7.95
2023-03-02T12:25:47.321Z,7.84
2023-03-02T12:26:47.303Z,7.81
2023-03-02T12:27:47.289Z,8.00
2023-03-02T12:28:47.311Z,7.95
2023-03-02T12:29:47.270Z,7.95
2023-03-02T12:30:47.272Z,7.89
2023-03-02T12:31:47.307Z,7.84
2023-03-02T12:32:47.245Z,7.77
2023-03-02T12:33:47.229Z,7.74
2023-03-02T12:34:47.223Z,7.81
2023-03-02T12:35:47.267Z,7.76
2023-03-02T12:36:47.257Z,7.58
2023-03-02T12:37:47.214Z,7.73
2023-03-02T12:38:47.211Z,7.82
2023-03-02T12:39:47.181Z,8.02
2023-03-02T12:40:47.178Z,8.09
2023-03-02T12:41:47.219Z,8.14
2023-03-02T12:42:47.143Z,8.18
2023-03-02T12:43:47.136Z,8.09
2023-03-02T12:44:47.123Z,7.99
2023-03-02T12:45:47.190Z,8.03
2023-03-02T12:46:47.178Z,8.07
2023-03-02T12:47:47.452Z,8.04
2023-03-02T12:48:47.588Z,8.09
2023-03-02T12:49:47.094Z,8.14
2023-03-02T12:50:47.078Z,8.03
2023-03-02T12:51:47.179Z,8.02
2023-03-02T12:52:47.058Z,8.06
2023-03-02T12:53:47.048Z,8.06
2023-03-02T12:54:47.034Z,8.09
2023-03-02T12:55:47.072Z,8.13
2023-03-02T12:56:47.015Z,8.24
2023-03-02T12:57:47.000Z,8.39
2023-03-02T12:58:47.997Z,8.47
2023-03-02T12:59:47.023Z,8.50
2023-03-02T13:00:47.005Z,8.46
2023-03-02T13:01:46.969Z,8.40
2023-03-02T13:02:47.020Z,8.42
2023-03-02T13:03:46.993Z,8.25
2023-03-02T13:04:46.942Z,8.22
2023-03-02T13:05:46.943Z,8.34
2023-03-02T13:06:46.918Z,8.25
2023-03-02T13:07:46.910Z,8.25
2023-03-02T13:08:46.958Z,8.31
2023-03-02T13:09:56.131Z,8.13
2023-03-02T13:10:48.967Z,8.09
2023-03-02T13:11:46.876Z,8.10
2023-03-02T13:12:46.870Z,8.13
2023-03-02T13:13:46.921Z,8.07
2023-03-02T13:14:46.841Z,8.04
2023-03-02T13:15:46.844Z,8.03
2023-03-02T13:16:46.915Z,8.02
2023-03-02T13:17:46.817Z,8.07
2023-03-02T13:18:46.807Z,8.04